TimeMST,TemperatureF,Dew PointF,Humidity,Sea Level PressureIn,VisibilityMPH,Wind Direction,Wind SpeedMPH,Gust SpeedMPH,PrecipitationIn,Events,Conditions,WindDirDegrees,DateUTC
12:56 AM,-11.9,-17.0,78,30.71,-9999.0,Calm,Calm,-,N/A,,Unknown,0,2013-01-04 07:56:00
1:56 AM,-11.9,-18.0,74,30.70,-9999.0,Calm,Calm,-,N/A,,Unknown,0,2013-01-04 08:56:00
2:56 AM,-13.0,-18.9,75,30.71,-9999.0,Calm,Calm,-,N/A,,Unknown,0,2013-01-04 09:56:00
3:56 AM,-14.1,-20.0,75,30.70,-9999.0,Calm,Calm,-,N/A,,Unknown,0,2013-01-04 10:56:00
4:56 AM,-14.1,-20.0,75,30.74,-9999.0,Calm,Calm,-,N/A,,Unknown,0,2013-01-04 11:56:00
5:56 AM,-16.1,-20.9,79,30.76,-9999.0,Calm,Calm,-,N/A,,Unknown,0,2013-01-04 12:56:00
6:56 AM,-14.1,-20.0,75,30.76,-9999.0,Calm,Calm,-,N/A,,Unknown,0,2013-01-04 13:56:00
7:56 AM,-17.0,-22.0,78,30.80,-9999.0,Calm,Calm,-,N/A,,Unknown,0,2013-01-04 14:56:00
8:56 AM,-11.9,-16.1,82,30.77,-9999.0,Calm,Calm,-,N/A,,Unknown,0,2013-01-04 15:56:00
9:56 AM,-4.0,-6.0,91,30.72,-9999.0,Calm,Calm,-,N/A,,Unknown,0,2013-01-04 16:56:00
10:56 AM,-0.0,-6.0,76,30.70,-9999.0,Calm,Calm,-,N/A,,Unknown,0,2013-01-04 17:56:00
11:56 AM,6.1,-2.9,67,30.63,-9999.0,Calm,Calm,-,N/A,,Unknown,0,2013-01-04 18:56:00
12:56 PM,7.0,-0.9,70,30.62,-9999.0,Calm,Calm,-,N/A,,Unknown,0,2013-01-04 19:56:00
1:56 PM,12.9,1.0,59,30.55,-9999.0,Calm,Calm,-,N/A,,Unknown,0,2013-01-04 20:56:00
2:56 PM,12.0,1.0,61,30.57,-9999.0,Calm,Calm,-,N/A,,Unknown,0,2013-01-04 21:56:00
3:56 PM,10.0,3.0,73,30.59,-9999.0,Calm,Calm,-,N/A,,Unknown,0,2013-01-04 22:56:00
4:56 PM,3.0,-0.9,84,30.65,-9999.0,Calm,Calm,-,N/A,,Unknown,0,2013-01-04 23:56:00
5:56 PM,1.9,-2.0,83,30.66,-9999.0,Calm,Calm,-,N/A,,Unknown,0,2013-01-05 00:56:00
6:56 PM,-0.9,-6.0,79,30.69,-9999.0,Calm,Calm,-,N/A,,Unknown,0,2013-01-05 01:56:00
7:56 PM,-2.9,-7.1,82,30.71,-9999.0,Calm,Calm,-,N/A,,Unknown,0,2013-01-05 02:56:00
8:56 PM,-5.1,-9.0,83,30.70,-9999.0,Calm,Calm,-,N/A,,Unknown,0,2013-01-05 03:56:00
9:56 PM,-8.0,-11.9,83,30.66,-9999.0,Calm,Calm,-,N/A,,Unknown,0,2013-01-05 04:56:00
10:56 PM,-8.0,-13.0,79,30.63,-9999.0,WNW,3.5,-,N/A,,Unknown,300,2013-01-05 05:56:00
11:56 PM,-9.9,-15.0,78,30.61,-9999.0,Calm,Calm,-,N/A,,Unknown,0,2013-01-05 06:56:00